createdAt,value
2019-03-18T00:01:42.723Z,101002.72
2019-03-18T00:04:12.319Z,100994.77
2019-03-18T00:06:41.869Z,101001.47
2019-03-18T00:09:12.682Z,101001.92
2019-03-18T00:11:42.809Z,101010.45
2019-03-18T00:14:12.403Z,101016.30
2019-03-18T00:17:00.035Z,101017.27
2019-03-18T00:19:29.573Z,101023.98
2019-03-18T00:21:59.117Z,101029.41
2019-03-18T00:24:46.627Z,101037.95
2019-03-18T00:27:16.214Z,101035.33
2019-03-18T00:29:46.088Z,101055.45
2019-03-18T00:32:15.646Z,101061.69
2019-03-18T00:34:45.262Z,101064.85
2019-03-18T00:37:14.844Z,101071.08
2019-03-18T00:39:44.646Z,101068.08
2019-03-18T00:42:14.170Z,101075.27
2019-03-18T00:45:13.774Z,101078.38
2019-03-18T00:47:33.023Z,101081.59
2019-03-18T00:50:02.620Z,101077.16
2019-03-18T00:52:32.146Z,101085.69
2019-03-18T00:55:02.017Z,101087.03
2019-03-18T00:57:31.573Z,101098.15
2019-03-18T01:00:01.135Z,101100.93
2019-03-18T01:02:30.687Z,101106.78
2019-03-18T01:05:00.387Z,101102.75
2019-03-18T01:07:29.947Z,101104.95
2019-03-18T01:09:59.493Z,101105.50
2019-03-18T01:12:29.026Z,101109.52
2019-03-18T01:14:58.611Z,101114.52
2019-03-18T01:17:28.163Z,101116.30
2019-03-18T01:19:57.706Z,101128.79
2019-03-18T01:22:27.258Z,101123.48
2019-03-18T01:24:56.827Z,101127.99
2019-03-18T01:27:26.393Z,101134.70
2019-03-18T01:29:55.951Z,101140.94
2019-03-18T01:32:25.502Z,101135.18
2019-03-18T01:34:55.037Z,101138.79
2019-03-18T01:37:24.877Z,101138.88
2019-03-18T01:39:54.770Z,101134.86
2019-03-18T01:42:24.316Z,101138.41
2019-03-18T01:44:53.862Z,101141.57
2019-03-18T01:47:23.410Z,101141.95
2019-03-18T01:49:52.974Z,101146.08
2019-03-18T01:52:22.513Z,101154.51
2019-03-18T01:54:52.085Z,101153.23
2019-03-18T01:57:21.911Z,101158.16
2019-03-18T01:59:51.810Z,101155.91
2019-03-18T02:02:21.681Z,101159.08
2019-03-18T02:04:51.573Z,101167.61
2019-03-18T02:07:21.419Z,101166.27
2019-03-18T02:09:50.968Z,101164.06
2019-03-18T02:12:20.569Z,101166.27
2019-03-18T02:14:50.105Z,101174.85
2019-03-18T02:17:19.650Z,101174.85
2019-03-18T02:19:49.544Z,101187.79
2019-03-18T02:22:19.180Z,101195.07
2019-03-18T02:24:48.899Z,101194.98
2019-03-18T02:27:18.432Z,101197.28
2019-03-18T02:29:48.254Z,101202.64
2019-03-18T02:32:17.806Z,101208.02
2019-03-18T02:34:47.363Z,101209.83
2019-03-18T02:37:16.932Z,101209.41
2019-03-18T02:39:46.470Z,101209.03
2019-03-18T02:42:16.398Z,101208.48
2019-03-18T02:44:45.967Z,101216.13
2019-03-18T02:47:15.847Z,101217.56
2019-03-18T02:49:45.779Z,101220.23
2019-03-18T02:52:15.692Z,101229.21
2019-03-18T02:54:45.606Z,101230.08
2019-03-18T02:57:15.152Z,101237.27
2019-03-18T02:59:44.711Z,101238.62
2019-03-18T03:02:14.249Z,101235.06
2019-03-18T03:04:47.876Z,101241.79
2019-03-18T03:07:17.456Z,101242.27
2019-03-18T03:09:46.997Z,101251.19
2019-03-18T03:12:16.544Z,101256.16
2019-03-18T03:14:46.061Z,101249.94
2019-03-18T03:17:16.475Z,101258.84
2019-03-18T03:19:46.038Z,101262.45
2019-03-18T03:22:15.794Z,101261.59
2019-03-18T03:24:45.353Z,101265.14
2019-03-18T03:27:14.907Z,101266.95
2019-03-18T03:29:44.486Z,101270.50
2019-03-18T03:32:14.020Z,101270.05
2019-03-18T03:34:43.842Z,101281.05
2019-03-18T03:37:13.417Z,101276.67
2019-03-18T03:39:42.977Z,101278.97
2019-03-18T03:42:12.509Z,101288.84
2019-03-18T03:44:42.043Z,101292.92
2019-03-18T03:47:11.591Z,101287.17
2019-03-18T03:49:41.165Z,101294.65
2019-03-18T03:52:10.720Z,101299.09
2019-03-18T03:54:40.292Z,101297.66
2019-03-18T03:57:09.854Z,101299.93
2019-03-18T03:59:39.669Z,101307.03
2019-03-18T04:02:09.501Z,101312.39
2019-03-18T04:04:39.027Z,101318.17
2019-03-18T04:07:08.616Z,101323.99
2019-03-18T04:09:38.511Z,101325.81
2019-03-18T04:12:08.105Z,101337.91
2019-03-18T04:14:37.947Z,101334.84
2019-03-18T04:17:07.510Z,101336.72
2019-03-18T04:19:37.086Z,101339.39
2019-03-18T04:22:06.895Z,101342.17
2019-03-18T04:24:36.458Z,101344.91
2019-03-18T04:27:05.980Z,101339.60
2019-03-18T04:29:35.512Z,101348.55
2019-03-18T04:32:05.116Z,101349.47
2019-03-18T04:34:34.657Z,101349.95
2019-03-18T04:37:04.194Z,101357.99
2019-03-18T04:39:33.732Z,101360.20
2019-03-18T04:42:03.262Z,101361.69
2019-03-18T04:44:33.150Z,101360.73
2019-03-18T04:47:13.813Z,101359.48
2019-03-18T04:49:34.314Z,101361.30
2019-03-18T04:52:03.894Z,101372.89
2019-03-18T04:54:33.423Z,101364.84
2019-03-18T04:57:02.981Z,101373.42
2019-03-18T04:59:32.852Z,101379.66
2019-03-18T05:02:02.379Z,101386.84
2019-03-18T05:04:31.952Z,101394.89
2019-03-18T05:07:01.519Z,101394.08
2019-03-18T05:09:31.081Z,101411.52
2019-03-18T05:12:00.628Z,101419.98
2019-03-18T05:14:30.181Z,101429.43
2019-03-18T05:16:59.647Z,101429.91
2019-03-18T05:19:29.213Z,101436.08
2019-03-18T05:21:58.829Z,101436.08
2019-03-18T05:24:28.551Z,101429.81
2019-03-18T05:26:58.107Z,101437.00
2019-03-18T05:29:27.672Z,101446.92
2019-03-18T05:31:57.453Z,101450.94
2019-03-18T05:34:26.920Z,101442.84
2019-03-18T05:36:56.489Z,101450.02
2019-03-18T05:39:26.315Z,101456.25
2019-03-18T05:41:55.833Z,101445.52
2019-03-18T05:44:25.389Z,101458.45
2019-03-18T05:46:54.917Z,101471.96
2019-03-18T05:49:24.453Z,101470.14
2019-03-18T05:51:54.115Z,101463.91
2019-03-18T05:54:23.643Z,101473.30
2019-03-18T05:56:53.425Z,101471.48
2019-03-18T05:59:22.953Z,101475.76
2019-03-18T06:01:52.472Z,101485.63
2019-03-18T06:04:22.050Z,101486.97
2019-03-18T06:06:51.985Z,101484.76
2019-03-18T06:09:21.507Z,101488.78
2019-03-18T06:11:51.780Z,101490.59
2019-03-18T06:14:21.331Z,101495.48
2019-03-18T06:17:08.556Z,101494.15
2019-03-18T06:19:38.081Z,101495.02
2019-03-18T06:22:07.654Z,101497.22
2019-03-18T06:24:37.188Z,101491.94
2019-03-18T06:27:06.728Z,101495.96
2019-03-18T06:29:36.260Z,101498.17
2019-03-18T06:32:05.867Z,101501.67
2019-03-18T06:34:35.423Z,101510.53
2019-03-18T06:37:04.956Z,101518.49
2019-03-18T06:39:34.477Z,101521.52
2019-03-18T06:42:04.007Z,101527.22
2019-03-18T06:44:33.545Z,101537.95
2019-03-18T06:47:03.103Z,101566.47
2019-03-18T06:49:32.638Z,101570.95
2019-03-18T06:52:02.156Z,101583.43
2019-03-18T06:54:31.691Z,101580.34
2019-03-18T06:57:01.204Z,101575.86
2019-03-18T06:59:30.767Z,101547.68
2019-03-18T07:02:00.284Z,101549.50
2019-03-18T07:04:29.806Z,101551.70
2019-03-18T07:06:59.330Z,101560.70
2019-03-18T07:09:28.925Z,101562.52
2019-03-18T07:11:58.922Z,101565.20
2019-03-18T07:14:28.777Z,101574.59
2019-03-18T07:16:58.320Z,101574.12
2019-03-18T07:19:27.865Z,101576.33
2019-03-18T07:21:57.435Z,101574.52
2019-03-18T07:24:27.050Z,101579.00
2019-03-18T07:26:57.231Z,101585.70
2019-03-18T07:29:27.061Z,101575.86
2019-03-18T07:31:56.613Z,101579.86
2019-03-18T07:34:26.466Z,101582.94
2019-03-18T07:37:14.386Z,101584.23
2019-03-18T07:39:43.923Z,101595.78
2019-03-18T07:42:32.275Z,101592.91
2019-03-18T07:45:02.391Z,101595.84
2019-03-18T07:47:31.912Z,101607.39
2019-03-18T07:50:01.773Z,101613.58
2019-03-18T07:52:31.297Z,101609.89
2019-03-18T07:55:00.864Z,101624.38
2019-03-18T07:57:32.705Z,101626.53
2019-03-18T08:00:02.257Z,101635.80
2019-03-18T08:02:31.783Z,101638.82
2019-03-18T08:05:01.317Z,101640.92
2019-03-18T08:07:31.324Z,101638.58
2019-03-18T08:10:01.120Z,101639.44
2019-03-18T08:12:30.654Z,101636.23
2019-03-18T08:15:00.477Z,101642.94
2019-03-18T08:17:30.043Z,101644.67
2019-03-18T08:19:59.644Z,101646.35
2019-03-18T08:22:29.185Z,101653.97
2019-03-18T08:24:58.710Z,101654.41
2019-03-18T08:27:28.253Z,101657.58
2019-03-18T08:29:57.798Z,101680.48
2019-03-18T08:32:27.364Z,101678.24
2019-03-18T08:34:57.218Z,101685.04
2019-03-18T08:37:26.819Z,101696.30
2019-03-18T08:39:56.371Z,101698.99
2019-03-18T08:42:25.922Z,101706.18
2019-03-18T08:44:55.480Z,101722.73
2019-03-18T08:47:25.348Z,101723.20
2019-03-18T08:49:54.890Z,101720.61
2019-03-18T08:52:24.452Z,101714.34
2019-03-18T08:54:54.343Z,101714.89
2019-03-18T08:57:23.919Z,101722.53
2019-03-18T08:59:53.469Z,101735.95
2019-03-18T09:02:23.004Z,101731.11
2019-03-18T09:04:52.942Z,101734.27
2019-03-18T09:07:22.837Z,101737.42
2019-03-18T09:09:52.381Z,101765.22
2019-03-18T09:12:21.950Z,101754.53
2019-03-18T09:14:51.484Z,101760.85
2019-03-18T09:17:21.041Z,101747.88
2019-03-18T09:19:50.574Z,101752.37
2019-03-18T09:22:20.456Z,101763.59
2019-03-18T09:24:49.987Z,101757.83
2019-03-18T09:27:19.854Z,101771.69
2019-03-18T09:29:49.452Z,101770.42
2019-03-18T09:32:18.985Z,101772.16
2019-03-18T09:34:48.514Z,101766.88
2019-03-18T09:37:18.053Z,101772.30
2019-03-18T09:39:47.643Z,101778.14
2019-03-18T09:42:18.107Z,101777.23
2019-03-18T09:45:06.359Z,101780.39
2019-03-18T09:47:56.249Z,101792.08
2019-03-18T09:50:25.695Z,101795.63
2019-03-18T09:52:55.502Z,101797.02
2019-03-18T09:55:25.669Z,101797.50
2019-03-18T09:57:55.222Z,101800.18
2019-03-18T10:00:24.798Z,101794.42
2019-03-18T10:02:54.362Z,101801.60
2019-03-18T10:05:23.890Z,101802.00
2019-03-18T10:07:53.762Z,101802.47
2019-03-18T10:10:23.285Z,101802.95
2019-03-18T10:12:52.855Z,101806.55
2019-03-18T10:15:22.396Z,101811.87
2019-03-18T10:17:51.960Z,101809.70
2019-03-18T10:20:21.552Z,101819.57
2019-03-18T10:22:51.075Z,101837.88
2019-03-18T10:25:20.633Z,101844.59
2019-03-18T10:27:50.258Z,101829.95
2019-03-18T10:30:19.794Z,101830.43
2019-03-18T10:32:49.350Z,101843.37
2019-03-18T10:35:18.890Z,101851.43
2019-03-18T10:37:48.427Z,101855.93
2019-03-18T10:40:17.958Z,101856.84
2019-03-18T10:42:47.724Z,101859.48
2019-03-18T10:45:17.590Z,101851.48
2019-03-18T10:47:47.142Z,101868.01
2019-03-18T10:50:16.684Z,101867.53
2019-03-18T10:52:46.514Z,101875.63
2019-03-18T10:55:16.070Z,101875.63
2019-03-18T10:57:45.611Z,101872.95
2019-03-18T11:00:15.513Z,101874.77
2019-03-18T11:02:45.633Z,101866.72
2019-03-18T11:05:15.759Z,101854.64
2019-03-18T11:07:45.309Z,101868.05
2019-03-18T11:10:14.875Z,101871.21
2019-03-18T11:12:44.871Z,101879.66
2019-03-18T11:15:14.459Z,101884.16
2019-03-18T11:17:44.323Z,101877.49
2019-03-18T11:20:13.878Z,101874.77
2019-03-18T11:22:43.755Z,101876.16
2019-03-18T11:25:13.319Z,101876.63
2019-03-18T11:27:42.886Z,101881.95
2019-03-18T11:30:13.491Z,101881.13
2019-03-18T11:32:43.044Z,101876.63
2019-03-18T11:35:12.587Z,101881.99
2019-03-18T11:37:42.837Z,101889.65
2019-03-18T11:40:12.393Z,101878.44
2019-03-18T11:42:41.945Z,101890.13
2019-03-18T11:45:11.715Z,101895.48
2019-03-18T11:47:41.544Z,101890.13
2019-03-18T11:50:11.959Z,101896.36
2019-03-18T11:52:42.017Z,101893.24
2019-03-18T11:55:13.125Z,101897.74
2019-03-18T11:57:42.657Z,101903.11
2019-03-18T12:00:13.529Z,101907.21
2019-03-18T12:02:43.410Z,101902.64
2019-03-18T12:05:14.499Z,101900.90
2019-03-18T12:07:44.029Z,101912.16
2019-03-18T12:10:15.260Z,101929.55
2019-03-18T12:12:45.183Z,101936.31
2019-03-18T12:15:14.752Z,101924.66
2019-03-18T12:17:44.671Z,101936.78
2019-03-18T12:20:23.740Z,101929.61
2019-03-18T12:22:45.881Z,101956.91
2019-03-18T12:25:15.438Z,101952.41
2019-03-18T12:27:44.977Z,101952.84
2019-03-18T12:30:16.539Z,101957.77
2019-03-18T12:32:46.050Z,101959.12
2019-03-18T12:35:15.592Z,101964.48
2019-03-18T12:37:45.515Z,101968.52
2019-03-18T12:40:15.059Z,101969.86
2019-03-18T12:42:44.639Z,101964.97
2019-03-18T12:45:14.539Z,101962.28
2019-03-18T12:47:44.275Z,101961.45
2019-03-18T12:50:15.110Z,101958.77
2019-03-18T12:52:44.985Z,101964.56
2019-03-18T12:55:14.637Z,101965.04
2019-03-18T12:57:44.188Z,101962.36
2019-03-18T13:00:18.967Z,101961.45
2019-03-18T13:02:48.511Z,101959.20
2019-03-18T13:05:18.359Z,101939.55
2019-03-18T13:07:47.935Z,101948.51
2019-03-18T13:10:21.394Z,101957.42
2019-03-18T13:12:50.257Z,101943.57
2019-03-18T13:15:19.798Z,101954.75
2019-03-18T13:17:49.353Z,101953.41
2019-03-18T13:20:20.715Z,101954.75
2019-03-18T13:22:53.702Z,101960.94
2019-03-18T13:25:21.789Z,101961.02
2019-03-18T13:27:51.688Z,101961.89
2019-03-18T13:30:21.254Z,101966.42
2019-03-18T13:32:51.122Z,101969.11
2019-03-18T13:35:20.696Z,101973.53
2019-03-18T13:37:50.229Z,101980.78
2019-03-18T13:40:22.632Z,101973.61
2019-03-18T13:42:53.919Z,101983.47
2019-03-18T13:45:23.395Z,101983.47
2019-03-18T13:47:55.831Z,101983.91
2019-03-18T13:50:46.727Z,101983.47
2019-03-18T13:53:34.415Z,101976.33
2019-03-18T13:56:03.981Z,101977.27
2019-03-18T13:58:33.531Z,101979.95
2019-03-18T14:01:03.085Z,101964.33
2019-03-18T14:03:32.623Z,101983.52
2019-03-18T14:06:02.510Z,101986.16
2019-03-18T14:08:32.060Z,101980.78
2019-03-18T14:11:01.702Z,101979.95
2019-03-18T14:13:31.233Z,101985.72
2019-03-18T14:16:01.438Z,101976.33
2019-03-18T14:18:30.991Z,101983.47
2019-03-18T14:21:00.546Z,101980.83
2019-03-18T14:23:30.091Z,101987.06
2019-03-18T14:25:59.635Z,101996.45
2019-03-18T14:28:29.190Z,102003.64
2019-03-18T14:30:58.771Z,102003.59
2019-03-18T14:33:28.308Z,102005.84
2019-03-18T14:35:58.201Z,102010.34
2019-03-18T14:38:27.745Z,102016.58
2019-03-18T14:40:57.305Z,102015.71
2019-03-18T14:43:26.875Z,102026.45
2019-03-18T14:45:56.424Z,102022.42
2019-03-18T14:48:25.999Z,102019.27
2019-03-18T14:50:56.161Z,102030.95
2019-03-18T14:53:27.164Z,102028.73
2019-03-18T14:56:14.514Z,102022.46
2019-03-18T14:59:02.072Z,102035.44
2019-03-18T15:01:31.650Z,102027.78
2019-03-18T15:04:01.186Z,102027.31
2019-03-18T15:06:30.725Z,102040.22
2019-03-18T15:09:00.294Z,102035.25
2019-03-18T15:11:29.850Z,102040.11
2019-03-18T15:13:59.638Z,102043.66
2019-03-18T15:16:29.177Z,102044.59
2019-03-18T15:18:58.723Z,102050.37
2019-03-18T15:21:28.266Z,102054.39
2019-03-18T15:23:57.813Z,102060.63
2019-03-18T15:26:27.369Z,102057.08
2019-03-18T15:28:56.928Z,102058.42
2019-03-18T15:31:26.861Z,102070.92
2019-03-18T15:33:56.407Z,102061.58
2019-03-18T15:36:25.946Z,102068.75
2019-03-18T15:38:55.514Z,102063.39
2019-03-18T15:41:25.056Z,102066.95
2019-03-18T15:43:54.602Z,102071.44
2019-03-18T15:46:24.179Z,102073.73
2019-03-18T15:48:53.711Z,102069.63
2019-03-18T15:51:23.276Z,102073.26
2019-03-18T15:53:52.839Z,102071.91
2019-03-18T15:56:22.723Z,102072.83
2019-03-18T15:58:52.257Z,102070.10
2019-03-18T16:01:39.882Z,102082.22
2019-03-18T16:04:09.494Z,102070.61
2019-03-18T16:06:53.998Z,102085.38
2019-03-18T16:09:23.850Z,102089.88
2019-03-18T16:11:53.415Z,102078.66
2019-03-18T16:14:22.975Z,102089.36
2019-03-18T16:17:01.464Z,102096.54
2019-03-18T16:19:23.757Z,102096.00
2019-03-18T16:21:53.318Z,102108.07
2019-03-18T16:24:22.981Z,102104.05
2019-03-18T16:26:52.535Z,102104.52
2019-03-18T16:29:22.079Z,102105.03
2019-03-18T16:31:51.626Z,102100.09
2019-03-18T16:34:21.316Z,102104.99
2019-03-18T16:36:50.934Z,102103.69
2019-03-18T16:39:20.702Z,102106.84
2019-03-18T16:41:50.606Z,102109.95
2019-03-18T16:44:20.325Z,102112.17
2019-03-18T16:46:49.878Z,102110.39
2019-03-18T16:49:37.470Z,102109.05
2019-03-18T16:52:07.020Z,102126.10
2019-03-18T16:54:36.562Z,102120.73
2019-03-18T16:57:06.434Z,102129.25
2019-03-18T16:59:35.975Z,102130.59
2019-03-18T17:02:05.541Z,102135.02
2019-03-18T17:04:35.006Z,102136.44
2019-03-18T17:07:04.543Z,102137.30
2019-03-18T17:09:34.004Z,102142.67
2019-03-18T17:12:03.934Z,102146.22
2019-03-18T17:14:33.501Z,102149.78
2019-03-18T17:17:03.110Z,102161.86
2019-03-18T17:19:32.605Z,102165.95
2019-03-18T17:22:02.491Z,102169.08
2019-03-18T17:24:32.534Z,102176.25
2019-03-18T17:27:02.099Z,102178.47
2019-03-18T17:29:31.633Z,102185.65
2019-03-18T17:32:01.183Z,102174.04
2019-03-18T17:34:31.022Z,102173.17
2019-03-18T17:37:00.549Z,102180.28
2019-03-18T17:39:30.415Z,102175.78
2019-03-18T17:42:00.315Z,102181.63
2019-03-18T17:44:29.857Z,102184.38
2019-03-18T17:46:59.405Z,102185.72
2019-03-18T17:49:28.946Z,102192.42
2019-03-18T17:52:16.848Z,102195.11
2019-03-18T17:54:52.393Z,102196.81
2019-03-18T17:57:21.948Z,102200.41
2019-03-18T17:59:51.576Z,102198.66
2019-03-18T18:02:21.485Z,102201.34
2019-03-18T18:05:08.786Z,102204.91
2019-03-18T18:07:38.361Z,102210.77
2019-03-18T18:10:08.146Z,102208.56
2019-03-18T18:12:38.055Z,102213.46
2019-03-18T18:15:07.877Z,102220.60
2019-03-18T18:17:37.472Z,102226.41
2019-03-18T18:20:07.776Z,102226.41
2019-03-18T18:22:37.338Z,102225.06
2019-03-18T18:25:07.988Z,102223.28
2019-03-18T18:27:37.544Z,102227.31
2019-03-18T18:30:07.580Z,102228.69
2019-03-18T18:32:37.143Z,102226.95
2019-03-18T18:35:07.818Z,102235.39
2019-03-18T18:37:37.548Z,102236.70
2019-03-18T18:40:08.171Z,102242.98
2019-03-18T18:42:37.750Z,102245.66
2019-03-18T18:45:07.351Z,102251.50
2019-03-18T18:47:36.935Z,102248.84
2019-03-18T18:50:07.168Z,102251.53
2019-03-18T18:52:36.738Z,102252.00
2019-03-18T18:55:06.329Z,102251.53
2019-03-18T18:57:35.895Z,102264.55
2019-03-18T19:00:06.347Z,102260.52
2019-03-18T19:02:35.941Z,102264.55
2019-03-18T19:05:06.335Z,102272.12
2019-03-18T19:07:35.898Z,102271.73
2019-03-18T19:10:05.527Z,102277.49
2019-03-18T19:12:35.096Z,102274.88
2019-03-18T19:15:05.178Z,102285.14
2019-03-18T19:17:34.740Z,102281.59
2019-03-18T19:20:06.291Z,102288.73
2019-03-18T19:22:35.871Z,102295.88
2019-03-18T19:25:06.944Z,102293.66
2019-03-18T19:27:36.833Z,102294.53
2019-03-18T19:30:08.215Z,102302.11
2019-03-18T19:32:38.101Z,102308.36
2019-03-18T19:35:07.718Z,102309.23
2019-03-18T19:37:37.305Z,102308.36
2019-03-18T19:40:08.684Z,102311.47
2019-03-18T19:42:38.584Z,102314.59
2019-03-18T19:45:09.333Z,102319.09
2019-03-18T19:47:38.932Z,102323.59
2019-03-18T19:50:11.147Z,102325.80
2019-03-18T19:52:40.735Z,102325.33
2019-03-18T19:55:10.638Z,102323.59
2019-03-18T19:57:40.236Z,102319.56
2019-03-18T20:00:13.154Z,102328.48
2019-03-18T20:02:43.052Z,102332.57
2019-03-18T20:05:15.838Z,102337.47
2019-03-18T20:07:46.047Z,102341.90
2019-03-18T20:10:15.616Z,102343.30
2019-03-18T20:12:45.186Z,102349.55
2019-03-18T20:15:14.816Z,102345.08
2019-03-18T20:17:44.383Z,102340.19
2019-03-18T20:20:14.259Z,102342.87
2019-03-18T20:22:43.857Z,102339.31
2019-03-18T20:25:13.515Z,102338.91
2019-03-18T20:27:43.118Z,102343.34
2019-03-18T20:30:14.099Z,102346.02
2019-03-18T20:32:43.676Z,102350.52
2019-03-18T20:35:13.817Z,102356.75
2019-03-18T20:37:43.410Z,102354.55
2019-03-18T20:40:13.450Z,102360.81
2019-03-18T20:42:43.025Z,102367.95
2019-03-18T20:45:13.785Z,102370.64
2019-03-18T20:47:43.307Z,102372.45
2019-03-18T20:50:14.378Z,102373.36
2019-03-18T20:52:44.530Z,102377.35
2019-03-18T20:55:14.101Z,102382.75
2019-03-18T20:57:43.987Z,102385.43
2019-03-18T21:00:14.835Z,102389.89
2019-03-18T21:02:44.475Z,102394.83
2019-03-18T21:05:14.293Z,102387.70
2019-03-18T21:07:44.145Z,102397.97
2019-03-18T21:10:13.743Z,102395.76
2019-03-18T21:12:43.315Z,102393.58
2019-03-18T21:15:13.204Z,102391.30
2019-03-18T21:17:43.052Z,102389.55
2019-03-18T21:20:14.101Z,102388.20
2019-03-18T21:22:43.657Z,102389.52
2019-03-18T21:25:13.219Z,102383.69
2019-03-18T21:27:42.770Z,102390.39
2019-03-18T21:30:12.494Z,102392.20
2019-03-18T21:32:42.056Z,102390.89
2019-03-18T21:35:12.208Z,102395.79
2019-03-18T21:37:41.878Z,102393.58
2019-03-18T21:40:12.124Z,102405.65
2019-03-18T21:42:41.960Z,102412.83
2019-03-18T21:45:13.720Z,102410.58
2019-03-18T21:47:43.272Z,102419.09
2019-03-18T21:50:12.874Z,102416.01
2019-03-18T21:52:42.437Z,102422.25
2019-03-18T21:55:12.094Z,102424.93
2019-03-18T21:57:41.638Z,102420.91
2019-03-18T22:00:12.547Z,102422.25
2019-03-18T22:02:42.123Z,102425.33
2019-03-18T22:05:12.055Z,102420.91
2019-03-18T22:07:41.971Z,102413.73
2019-03-18T22:10:12.303Z,102411.52
2019-03-18T22:12:42.157Z,102408.86
2019-03-18T22:15:11.978Z,102417.81
2019-03-18T22:17:41.543Z,102418.31
2019-03-18T22:20:12.688Z,102430.79
2019-03-18T22:22:42.515Z,102429.92
2019-03-18T22:25:30.296Z,102424.15
2019-03-18T22:28:18.101Z,102429.05
2019-03-18T22:30:53.624Z,102425.52
2019-03-18T22:33:23.100Z,102435.84
2019-03-18T22:35:52.719Z,102434.94
2019-03-18T22:38:22.276Z,102435.41
2019-03-18T22:41:09.884Z,102442.58
2019-03-18T22:43:39.495Z,102447.48
2019-03-18T22:46:09.129Z,102444.39
2019-03-18T22:48:38.763Z,102435.91
2019-03-18T22:51:08.771Z,102435.03
2019-03-18T22:53:38.320Z,102440.39
2019-03-18T22:56:08.136Z,102443.55
2019-03-18T22:58:37.696Z,102447.56
2019-03-18T23:01:11.980Z,102447.16
2019-03-18T23:03:41.840Z,102451.22
2019-03-18T23:06:11.709Z,102459.23
2019-03-18T23:08:41.286Z,102454.30
2019-03-18T23:11:10.959Z,102459.27
2019-03-18T23:13:40.511Z,102457.52
2019-03-18T23:16:10.064Z,102462.88
2019-03-18T23:18:39.610Z,102466.91
2019-03-18T23:21:09.201Z,102471.36
2019-03-18T23:23:39.105Z,102463.31
2019-03-18T23:26:09.012Z,102461.09
2019-03-18T23:28:38.562Z,102455.33
2019-03-18T23:31:08.436Z,102459.34
2019-03-18T23:33:37.998Z,102452.64
2019-03-18T23:36:07.532Z,102456.20
2019-03-18T23:38:37.401Z,102456.23
2019-03-18T23:41:06.919Z,102449.11
2019-03-18T23:43:36.780Z,102458.91
2019-03-18T23:46:06.344Z,102459.38
2019-03-18T23:48:35.908Z,102460.72
2019-03-18T23:51:05.457Z,102453.16
2019-03-18T23:53:35.156Z,102458.53
2019-03-18T23:56:04.711Z,102467.92
2019-03-18T23:58:34.362Z,102467.52
